createdAt,value
2023-05-19T00:01:17.720Z,2.03
2023-05-19T00:03:58.964Z,1.77
2023-05-19T00:06:29.171Z,2.07
2023-05-19T00:08:59.835Z,2.03
2023-05-19T00:11:27.909Z,1.80
2023-05-19T00:13:56.632Z,1.93
2023-05-19T00:16:24.699Z,1.80
2023-05-19T00:18:53.233Z,2.20
2023-05-19T00:21:20.785Z,1.73
2023-05-19T00:23:47.903Z,2.10
2023-05-19T00:26:15.032Z,2.00
2023-05-19T00:28:51.717Z,1.80
2023-05-19T00:31:18.400Z,1.67
2023-05-19T00:33:45.727Z,1.80
2023-05-19T00:36:12.672Z,1.60
2023-05-19T00:38:39.900Z,1.73
2023-05-19T00:41:07.387Z,1.83
2023-05-19T00:43:34.664Z,1.50
2023-05-19T00:46:01.927Z,1.60
2023-05-19T00:48:29.101Z,1.77
2023-05-19T00:51:02.116Z,1.97
2023-05-19T00:53:29.751Z,1.87
2023-05-19T00:55:56.922Z,1.70
2023-05-19T00:58:28.998Z,1.90
2023-05-19T01:01:03.142Z,1.60
2023-05-19T01:03:31.974Z,1.77
2023-05-19T01:06:01.749Z,2.20
2023-05-19T01:08:31.513Z,2.00
2023-05-19T01:10:58.979Z,1.80
2023-05-19T01:13:26.444Z,1.80
2023-05-19T01:16:01.744Z,2.30
2023-05-19T01:18:56.241Z,2.17
2023-05-19T01:22:03.523Z,2.30
2023-05-19T01:24:45.420Z,1.90
2023-05-19T01:27:48.537Z,1.60
2023-05-19T01:30:32.614Z,1.63
2023-05-19T01:33:02.776Z,1.53
2023-05-19T01:35:30.683Z,1.60
2023-05-19T01:37:59.574Z,1.67
2023-05-19T01:40:27.787Z,1.90
2023-05-19T01:42:57.811Z,1.60
2023-05-19T01:45:26.511Z,1.50
2023-05-19T01:48:00.294Z,1.60
2023-05-19T01:50:27.908Z,1.80
2023-05-19T01:52:55.172Z,1.60
2023-05-19T01:55:23.656Z,1.40
2023-05-19T01:58:17.410Z,2.07
2023-05-19T02:01:16.446Z,1.53
2023-05-19T02:03:50.470Z,1.60
2023-05-19T02:06:44.658Z,1.80
2023-05-19T02:09:23.202Z,2.13
2023-05-19T02:12:11.337Z,1.70
2023-05-19T02:14:56.251Z,1.80
2023-05-19T02:17:27.220Z,1.63
2023-05-19T02:19:54.325Z,1.50
2023-05-19T02:22:21.468Z,1.70
2023-05-19T02:24:51.501Z,1.73
2023-05-19T02:27:18.840Z,1.77
2023-05-19T02:29:46.089Z,1.63
2023-05-19T02:32:13.167Z,1.90
2023-05-19T02:34:42.157Z,1.43
2023-05-19T02:37:09.294Z,1.77
2023-05-19T02:39:36.399Z,1.43
2023-05-19T02:42:04.018Z,1.40
2023-05-19T02:44:31.257Z,1.90
2023-05-19T02:46:58.367Z,1.90
2023-05-19T02:49:25.649Z,1.50
2023-05-19T02:51:53.176Z,2.00
2023-05-19T02:54:20.291Z,1.43
2023-05-19T02:56:47.347Z,1.80
2023-05-19T02:59:14.579Z,1.60
2023-05-19T03:01:41.332Z,2.03
2023-05-19T03:04:08.523Z,1.73
2023-05-19T03:06:36.298Z,1.80
2023-05-19T03:09:03.021Z,1.97
2023-05-19T03:11:30.858Z,1.70
2023-05-19T03:13:57.941Z,1.80
2023-05-19T03:16:25.136Z,1.50
2023-05-19T03:18:52.348Z,2.67
2023-05-19T03:21:19.082Z,1.80
2023-05-19T03:23:47.020Z,1.80
2023-05-19T03:26:14.187Z,1.70
2023-05-19T03:28:41.013Z,2.00
2023-05-19T03:31:08.108Z,2.27
2023-05-19T03:33:38.744Z,1.83
2023-05-19T03:36:06.227Z,2.77
2023-05-19T03:38:36.944Z,1.63
2023-05-19T03:41:04.029Z,2.13
2023-05-19T03:43:31.926Z,1.77
2023-05-19T03:46:03.017Z,1.73
2023-05-19T03:48:53.077Z,2.33
2023-05-19T03:51:49.450Z,1.70
2023-05-19T03:54:32.982Z,1.67
2023-05-19T03:57:00.127Z,2.23
2023-05-19T03:59:27.201Z,1.87
2023-05-19T04:01:54.056Z,1.77
2023-05-19T04:04:21.654Z,2.40
2023-05-19T04:06:48.862Z,1.93
2023-05-19T04:09:16.508Z,1.83
2023-05-19T04:11:43.773Z,2.87
2023-05-19T04:14:10.504Z,1.80
2023-05-19T04:16:37.615Z,2.37
2023-05-19T04:19:04.872Z,1.80
2023-05-19T04:21:32.046Z,2.40
2023-05-19T04:24:00.124Z,2.50
2023-05-19T04:26:30.720Z,2.47
2023-05-19T04:28:58.055Z,2.13
2023-05-19T04:31:25.321Z,2.20
2023-05-19T04:33:53.452Z,2.23
2023-05-19T04:36:21.750Z,2.17
2023-05-19T04:38:54.803Z,2.43
2023-05-19T04:41:23.803Z,2.50
2023-05-19T04:43:51.079Z,2.30
2023-05-19T04:46:24.212Z,1.90
2023-05-19T04:48:53.063Z,2.57
2023-05-19T04:51:19.933Z,2.90
2023-05-19T04:53:47.056Z,2.13
2023-05-19T04:56:15.452Z,1.93
2023-05-19T04:58:44.591Z,2.40
2023-05-19T05:01:13.811Z,2.60
2023-05-19T05:03:41.016Z,2.17
2023-05-19T05:06:08.850Z,2.20
2023-05-19T05:08:37.325Z,2.60
2023-05-19T05:11:04.563Z,2.47
2023-05-19T05:13:32.103Z,2.40
2023-05-19T05:15:59.303Z,2.73
2023-05-19T05:18:26.661Z,2.37
2023-05-19T05:20:53.673Z,2.30
2023-05-19T05:23:20.944Z,2.20
2023-05-19T05:25:49.579Z,2.27
2023-05-19T05:28:17.447Z,2.47
2023-05-19T05:30:46.309Z,3.63
2023-05-19T05:33:15.117Z,3.50
2023-05-19T05:35:42.003Z,3.37
2023-05-19T05:38:11.558Z,3.20
2023-05-19T05:40:39.275Z,3.00
2023-05-19T05:43:06.691Z,2.60
2023-05-19T05:45:37.954Z,2.93
2023-05-19T05:48:05.874Z,2.40
2023-05-19T05:50:33.781Z,2.60
2023-05-19T05:53:03.520Z,3.03
2023-05-19T05:55:31.079Z,3.80
2023-05-19T05:58:02.058Z,3.10
2023-05-19T06:00:29.794Z,3.17
2023-05-19T06:02:57.193Z,3.00
2023-05-19T06:05:26.057Z,2.90
2023-05-19T06:07:54.541Z,2.67
2023-05-19T06:10:25.504Z,2.40
2023-05-19T06:12:54.452Z,2.33
2023-05-19T06:15:22.179Z,2.77
2023-05-19T06:17:59.540Z,2.53
2023-05-19T06:20:26.879Z,2.10
2023-05-19T06:22:54.291Z,2.20
2023-05-19T06:25:22.828Z,2.53
2023-05-19T06:27:50.264Z,2.20
2023-05-19T06:30:17.456Z,2.20
2023-05-19T06:32:54.094Z,2.33
2023-05-19T06:35:21.240Z,2.17
2023-05-19T06:37:48.894Z,1.53
2023-05-19T06:40:16.085Z,1.30
2023-05-19T06:42:43.536Z,1.30
2023-05-19T06:45:16.515Z,1.40
2023-05-19T06:47:44.520Z,1.57
2023-05-19T06:50:11.678Z,1.30
2023-05-19T06:52:41.967Z,1.60
2023-05-19T06:55:09.152Z,1.40
2023-05-19T06:57:38.515Z,2.10
2023-05-19T07:00:09.569Z,1.37
2023-05-19T07:02:36.756Z,1.37
2023-05-19T07:05:04.553Z,1.73
2023-05-19T07:07:31.323Z,1.40
2023-05-19T07:09:59.322Z,1.60
2023-05-19T07:12:27.555Z,1.67
2023-05-19T07:14:55.021Z,2.43
2023-05-19T07:17:23.552Z,1.47
2023-05-19T07:19:50.696Z,1.80
2023-05-19T07:22:17.992Z,1.37
2023-05-19T07:24:45.167Z,2.20
2023-05-19T07:27:12.254Z,1.77
2023-05-19T07:29:39.372Z,2.47
2023-05-19T07:32:06.524Z,1.37
2023-05-19T07:34:33.649Z,2.20
2023-05-19T07:37:00.315Z,1.80
2023-05-19T07:39:29.570Z,1.47
2023-05-19T07:41:56.984Z,1.40
2023-05-19T07:44:24.134Z,1.87
2023-05-19T07:46:51.274Z,1.80
2023-05-19T07:49:18.412Z,1.23
2023-05-19T07:51:45.512Z,1.07
2023-05-19T07:54:12.656Z,1.03
2023-05-19T07:56:39.784Z,1.60
2023-05-19T07:59:07.965Z,1.47
2023-05-19T08:01:35.151Z,1.10
2023-05-19T08:04:02.448Z,1.20
2023-05-19T08:06:30.100Z,1.60
2023-05-19T08:08:57.235Z,1.30
2023-05-19T08:11:23.943Z,1.50
2023-05-19T08:13:51.678Z,1.40
2023-05-19T08:16:18.865Z,1.83
2023-05-19T08:18:46.132Z,1.67
2023-05-19T08:21:13.431Z,1.40
2023-05-19T08:23:40.124Z,1.50
2023-05-19T08:26:07.207Z,1.63
2023-05-19T08:28:34.263Z,1.07
2023-05-19T08:31:01.018Z,1.37
2023-05-19T08:33:28.238Z,1.43
2023-05-19T08:35:57.917Z,0.97
2023-05-19T08:38:25.944Z,1.37
2023-05-19T08:40:52.754Z,1.20
2023-05-19T08:43:19.933Z,1.30
2023-05-19T08:45:48.132Z,1.23
2023-05-19T08:48:17.457Z,1.57
2023-05-19T08:50:51.696Z,1.20
2023-05-19T08:53:33.958Z,0.87
2023-05-19T08:56:22.554Z,1.23
2023-05-19T08:58:50.784Z,1.10
2023-05-19T09:01:19.382Z,1.00
2023-05-19T09:03:49.460Z,1.33
2023-05-19T09:06:17.067Z,1.10
2023-05-19T09:08:44.688Z,1.50
2023-05-19T09:11:11.780Z,1.17
2023-05-19T09:13:39.074Z,0.90
2023-05-19T09:16:06.500Z,1.13
2023-05-19T09:18:33.834Z,1.50
2023-05-19T09:21:04.993Z,1.13
2023-05-19T09:23:36.186Z,1.30
2023-05-19T09:26:07.038Z,1.67
2023-05-19T09:28:34.980Z,1.50
2023-05-19T09:31:02.499Z,1.40
2023-05-19T09:33:30.130Z,1.30
2023-05-19T09:35:57.444Z,1.17
2023-05-19T09:38:25.250Z,1.33
2023-05-19T09:40:53.409Z,1.27
2023-05-19T09:43:21.566Z,1.40
2023-05-19T09:45:48.695Z,1.47
2023-05-19T09:48:16.492Z,1.57
2023-05-19T09:50:45.565Z,1.83
2023-05-19T09:53:14.147Z,1.67
2023-05-19T09:55:41.955Z,1.40
2023-05-19T09:58:10.380Z,1.53
2023-05-19T10:00:38.652Z,1.47
2023-05-19T10:03:06.150Z,1.30
2023-05-19T10:05:33.585Z,1.50
2023-05-19T10:08:01.348Z,1.80
2023-05-19T10:10:28.896Z,1.60
2023-05-19T10:12:56.126Z,1.43
2023-05-19T10:15:23.481Z,0.93
2023-05-19T10:17:50.515Z,1.60
2023-05-19T10:20:17.731Z,1.40
2023-05-19T10:22:46.162Z,1.40
2023-05-19T10:25:15.109Z,1.30
2023-05-19T10:27:52.394Z,2.10
2023-05-19T10:30:25.943Z,1.27
2023-05-19T10:32:54.717Z,1.10
2023-05-19T10:35:43.438Z,1.20
2023-05-19T10:38:24.311Z,1.30
2023-05-19T10:40:51.826Z,1.67
2023-05-19T10:43:24.719Z,1.47
2023-05-19T10:45:53.524Z,1.23
2023-05-19T10:48:22.194Z,1.30
2023-05-19T10:50:53.138Z,1.30
2023-05-19T10:53:22.627Z,1.63
2023-05-19T10:55:56.362Z,1.20
2023-05-19T10:58:39.927Z,1.50
2023-05-19T11:01:14.145Z,1.50
2023-05-19T11:03:47.976Z,1.40
2023-05-19T11:06:26.266Z,1.50
2023-05-19T11:09:01.847Z,1.10
2023-05-19T11:11:50.943Z,1.40
2023-05-19T11:14:19.210Z,1.13
2023-05-19T11:16:50.434Z,1.57
2023-05-19T11:19:27.004Z,1.40
2023-05-19T11:21:55.389Z,1.27
2023-05-19T11:24:39.918Z,1.43
2023-05-19T11:27:30.914Z,1.23
2023-05-19T11:30:07.536Z,1.50
2023-05-19T11:32:35.853Z,1.43
2023-05-19T11:35:02.864Z,1.60
2023-05-19T11:37:32.883Z,1.73
2023-05-19T11:40:03.318Z,1.57
2023-05-19T11:42:30.495Z,1.13
2023-05-19T11:44:57.738Z,1.33
2023-05-19T11:47:24.871Z,1.50
2023-05-19T11:49:52.281Z,1.50
2023-05-19T11:52:22.354Z,1.57
2023-05-19T11:54:49.807Z,1.47
2023-05-19T11:57:16.993Z,1.50
2023-05-19T11:59:45.653Z,1.47
2023-05-19T12:02:27.864Z,1.57
2023-05-19T12:04:55.406Z,1.53
2023-05-19T12:07:26.009Z,1.37
2023-05-19T12:09:53.155Z,1.43
2023-05-19T12:12:21.430Z,1.30
2023-05-19T12:14:50.371Z,1.20
2023-05-19T12:17:21.182Z,1.27
2023-05-19T12:19:48.988Z,1.87
2023-05-19T12:22:17.206Z,1.40
2023-05-19T12:24:44.795Z,1.10
2023-05-19T12:27:20.303Z,1.60
2023-05-19T12:29:54.281Z,1.73
2023-05-19T12:32:28.679Z,1.33
2023-05-19T12:34:58.771Z,1.40
2023-05-19T12:37:30.001Z,1.40
2023-05-19T12:39:57.540Z,1.50
2023-05-19T12:42:31.038Z,1.33
2023-05-19T12:45:00.751Z,1.50
2023-05-19T12:47:35.919Z,1.57
2023-05-19T12:50:04.863Z,1.17
2023-05-19T12:52:35.276Z,1.50
2023-05-19T12:55:07.176Z,1.20
2023-05-19T12:57:41.868Z,1.33
2023-05-19T13:00:17.651Z,1.17
2023-05-19T13:03:07.883Z,1.20
2023-05-19T13:05:39.434Z,1.30
2023-05-19T13:08:09.100Z,1.20
2023-05-19T13:10:37.617Z,1.17
2023-05-19T13:13:05.045Z,1.30
2023-05-19T13:15:36.403Z,1.20
2023-05-19T13:18:06.114Z,1.40
2023-05-19T13:20:33.472Z,1.30
2023-05-19T13:23:00.357Z,1.33
2023-05-19T13:25:27.536Z,1.07
2023-05-19T13:27:54.980Z,1.30
2023-05-19T13:30:21.949Z,1.30
2023-05-19T13:32:48.664Z,1.10
2023-05-19T13:35:15.922Z,1.20
2023-05-19T13:37:43.184Z,1.37
2023-05-19T13:40:10.809Z,1.13
2023-05-19T13:42:37.934Z,1.10
2023-05-19T13:45:05.170Z,1.47
2023-05-19T13:47:32.011Z,1.73
2023-05-19T13:49:59.153Z,1.20
2023-05-19T13:52:27.533Z,1.20
2023-05-19T13:54:56.676Z,1.20
2023-05-19T13:57:26.662Z,1.30
2023-05-19T14:00:02.753Z,1.63
2023-05-19T14:02:39.276Z,1.27
2023-05-19T14:05:06.936Z,1.10
2023-05-19T14:07:34.983Z,1.33
2023-05-19T14:10:03.879Z,1.67
2023-05-19T14:12:41.504Z,1.20
2023-05-19T14:15:14.772Z,1.40
2023-05-19T14:17:42.049Z,1.00
2023-05-19T14:20:09.552Z,1.93
2023-05-19T14:22:36.228Z,1.37
2023-05-19T14:25:03.807Z,1.30
2023-05-19T14:27:30.535Z,1.07
2023-05-19T14:29:57.291Z,1.40
2023-05-19T14:32:24.569Z,1.17
2023-05-19T14:34:54.041Z,1.13
2023-05-19T14:37:20.722Z,1.27
2023-05-19T14:39:54.262Z,1.37
2023-05-19T14:42:20.871Z,1.30
2023-05-19T14:44:47.636Z,1.20
2023-05-19T14:47:14.367Z,0.97
2023-05-19T14:49:41.152Z,1.27
2023-05-19T14:52:07.842Z,1.07
2023-05-19T14:54:34.541Z,1.30
2023-05-19T14:57:01.585Z,1.10
2023-05-19T14:59:29.533Z,1.10
2023-05-19T15:01:56.730Z,1.00
2023-05-19T15:04:23.496Z,1.40
2023-05-19T15:07:02.034Z,1.13
2023-05-19T15:09:36.200Z,1.17
2023-05-19T15:12:03.342Z,1.20
2023-05-19T15:14:30.963Z,1.03
2023-05-19T15:16:59.097Z,1.43
2023-05-19T15:19:26.321Z,1.23
2023-05-19T15:21:53.197Z,1.03
2023-05-19T15:24:19.842Z,0.70
2023-05-19T15:26:47.201Z,0.90
2023-05-19T15:29:13.946Z,1.00
2023-05-19T15:31:40.731Z,1.10
2023-05-19T15:34:07.518Z,0.90
2023-05-19T15:36:34.608Z,1.00
2023-05-19T15:39:01.389Z,1.10
2023-05-19T15:41:28.094Z,1.03
2023-05-19T15:43:54.835Z,1.30
2023-05-19T15:46:21.777Z,1.17
2023-05-19T15:48:48.493Z,0.93
2023-05-19T15:51:15.203Z,1.10
2023-05-19T15:53:42.014Z,1.10
2023-05-19T15:56:08.836Z,1.23
2023-05-19T15:58:35.577Z,1.10
2023-05-19T16:01:02.922Z,1.33
2023-05-19T16:03:30.061Z,1.10
2023-05-19T16:05:56.977Z,1.40
2023-05-19T16:08:23.683Z,1.10
2023-05-19T16:10:50.501Z,0.90
2023-05-19T16:13:17.141Z,0.90
2023-05-19T16:15:43.808Z,1.40
2023-05-19T16:18:11.702Z,1.17
2023-05-19T16:20:38.661Z,1.10
2023-05-19T16:23:05.584Z,1.30
2023-05-19T16:25:32.559Z,1.00
2023-05-19T16:27:59.233Z,0.97
2023-05-19T16:30:27.853Z,0.97
2023-05-19T16:32:54.737Z,1.20
2023-05-19T16:35:21.869Z,1.13
2023-05-19T16:37:49.027Z,1.10
2023-05-19T16:40:15.732Z,1.10
2023-05-19T16:42:42.833Z,1.30
2023-05-19T16:45:09.955Z,1.10
2023-05-19T16:47:36.744Z,1.00
2023-05-19T16:50:03.981Z,1.03
2023-05-19T16:52:30.716Z,0.83
2023-05-19T16:54:57.438Z,1.10
2023-05-19T16:57:24.234Z,1.20
2023-05-19T16:59:50.940Z,1.00
2023-05-19T17:02:17.722Z,0.90
2023-05-19T17:04:44.445Z,1.13
2023-05-19T17:07:17.512Z,1.00
2023-05-19T17:09:44.649Z,0.97
2023-05-19T17:12:11.309Z,0.90
2023-05-19T17:14:38.027Z,1.00
2023-05-19T17:17:04.872Z,1.10
2023-05-19T17:19:31.710Z,0.90
2023-05-19T17:21:58.540Z,1.37
2023-05-19T17:24:25.663Z,1.00
2023-05-19T17:26:52.396Z,1.10
2023-05-19T17:29:19.059Z,1.20
2023-05-19T17:31:45.862Z,1.30
2023-05-19T17:34:12.525Z,1.00
2023-05-19T17:36:39.167Z,0.90
2023-05-19T17:39:05.901Z,1.27
2023-05-19T17:41:32.983Z,0.90
2023-05-19T17:43:59.633Z,1.20
2023-05-19T17:46:26.351Z,1.00
2023-05-19T17:48:53.052Z,1.20
2023-05-19T17:51:20.012Z,1.00
2023-05-19T17:53:46.998Z,1.20
2023-05-19T17:56:14.211Z,1.43
2023-05-19T17:58:41.469Z,1.00
2023-05-19T18:01:08.661Z,1.13
2023-05-19T18:03:35.801Z,1.13
2023-05-19T18:06:02.889Z,1.07
2023-05-19T18:08:31.352Z,1.20
2023-05-19T18:10:58.235Z,1.03
2023-05-19T18:13:26.074Z,0.93
2023-05-19T18:15:52.890Z,0.90
2023-05-19T18:18:19.600Z,1.20
2023-05-19T18:20:46.252Z,1.20
2023-05-19T18:23:13.185Z,1.00
2023-05-19T18:25:39.850Z,1.00
2023-05-19T18:28:06.695Z,1.10
2023-05-19T18:30:33.600Z,1.33
2023-05-19T18:33:03.493Z,1.13
2023-05-19T18:35:30.980Z,1.47
2023-05-19T18:37:57.679Z,1.30
2023-05-19T18:40:24.851Z,1.00
2023-05-19T18:42:52.012Z,1.40
2023-05-19T18:45:18.897Z,1.20
2023-05-19T18:47:46.090Z,1.10
2023-05-19T18:50:13.057Z,1.23
2023-05-19T18:52:39.830Z,0.97
2023-05-19T18:55:07.094Z,1.10
2023-05-19T18:57:34.197Z,0.97
2023-05-19T19:00:00.890Z,1.30
2023-05-19T19:02:28.143Z,1.00
2023-05-19T19:04:54.990Z,1.20
2023-05-19T19:07:22.239Z,1.30
2023-05-19T19:09:49.277Z,0.90
2023-05-19T19:12:16.833Z,1.47
2023-05-19T19:14:45.421Z,1.10
2023-05-19T19:17:12.717Z,1.20
2023-05-19T19:19:39.607Z,1.13
2023-05-19T19:22:06.375Z,1.60
2023-05-19T19:24:33.450Z,1.27
2023-05-19T19:27:00.566Z,1.00
2023-05-19T19:29:28.284Z,1.20
2023-05-19T19:31:55.486Z,1.40
2023-05-19T19:34:22.624Z,1.10
2023-05-19T19:36:49.627Z,1.43
2023-05-19T19:39:16.283Z,1.27
2023-05-19T19:41:43.097Z,1.00
2023-05-19T19:44:10.252Z,1.20
2023-05-19T19:46:37.083Z,1.40
2023-05-19T19:49:03.828Z,1.30
2023-05-19T19:51:31.450Z,1.40
2023-05-19T19:53:58.978Z,1.53
2023-05-19T19:56:27.360Z,1.40
2023-05-19T19:58:56.829Z,1.27
2023-05-19T20:01:27.531Z,1.20
2023-05-19T20:03:55.828Z,1.20
2023-05-19T20:06:22.992Z,1.30
2023-05-19T20:08:49.900Z,1.33
2023-05-19T20:11:16.682Z,1.43
2023-05-19T20:13:43.428Z,1.27
2023-05-19T20:16:10.614Z,1.20
2023-05-19T20:18:37.314Z,1.50
2023-05-19T20:21:04.501Z,1.23
2023-05-19T20:23:31.237Z,1.17
2023-05-19T20:26:10.161Z,1.30
2023-05-19T20:28:38.652Z,1.23
2023-05-19T20:31:06.264Z,1.13
2023-05-19T20:33:33.515Z,1.50
2023-05-19T20:36:00.489Z,1.37
2023-05-19T20:38:27.401Z,1.47
2023-05-19T20:40:54.586Z,1.23
2023-05-19T20:43:21.381Z,1.40
2023-05-19T20:45:48.195Z,1.53
2023-05-19T20:48:18.463Z,1.57
2023-05-19T20:50:45.730Z,1.10
2023-05-19T20:53:12.836Z,1.70
2023-05-19T20:55:39.602Z,1.23
2023-05-19T20:58:06.955Z,1.50
2023-05-19T21:00:33.991Z,1.40
2023-05-19T21:03:01.697Z,1.83
2023-05-19T21:05:28.999Z,1.60
2023-05-19T21:07:55.850Z,1.40
2023-05-19T21:10:22.531Z,1.50
2023-05-19T21:12:49.933Z,2.00
2023-05-19T21:15:17.080Z,1.93
2023-05-19T21:17:44.263Z,1.50
2023-05-19T21:20:11.485Z,1.70
2023-05-19T21:22:38.693Z,2.10
2023-05-19T21:25:06.056Z,1.60
2023-05-19T21:27:35.385Z,1.97
2023-05-19T21:30:02.641Z,1.93
2023-05-19T21:32:30.217Z,1.93
2023-05-19T21:34:57.395Z,1.73
2023-05-19T21:37:24.058Z,1.97
2023-05-19T21:39:51.490Z,1.97
2023-05-19T21:42:18.663Z,2.20
2023-05-19T21:44:45.925Z,1.90
2023-05-19T21:47:13.020Z,2.20
2023-05-19T21:49:40.573Z,1.90
2023-05-19T21:52:07.747Z,2.00
2023-05-19T21:54:34.959Z,1.93
2023-05-19T21:57:02.304Z,1.90
2023-05-19T21:59:29.487Z,2.43
2023-05-19T22:01:56.689Z,2.43
2023-05-19T22:04:23.812Z,2.23
2023-05-19T22:06:51.012Z,2.30
2023-05-19T22:09:18.161Z,2.00
2023-05-19T22:11:45.258Z,1.93
2023-05-19T22:14:12.044Z,2.03
2023-05-19T22:16:38.813Z,2.17
2023-05-19T22:19:05.974Z,2.10
2023-05-19T22:21:33.127Z,2.00
2023-05-19T22:24:00.614Z,1.53
2023-05-19T22:26:27.675Z,1.97
2023-05-19T22:28:56.524Z,1.73
2023-05-19T22:31:23.591Z,1.70
2023-05-19T22:33:50.793Z,2.40
2023-05-19T22:36:18.016Z,1.70
2023-05-19T22:38:45.086Z,1.60
2023-05-19T22:41:12.133Z,2.17
2023-05-19T22:43:38.802Z,2.40
2023-05-19T22:46:06.216Z,1.83
2023-05-19T22:48:33.359Z,1.90
2023-05-19T22:51:00.435Z,1.90
2023-05-19T22:53:27.552Z,1.40
2023-05-19T22:55:54.679Z,1.53
2023-05-19T22:58:21.749Z,1.80
2023-05-19T23:00:48.860Z,1.70
2023-05-19T23:03:16.017Z,1.93
2023-05-19T23:05:43.074Z,1.70
2023-05-19T23:08:09.700Z,1.57
2023-05-19T23:10:36.800Z,2.20
2023-05-19T23:13:03.912Z,1.43
2023-05-19T23:15:30.999Z,1.57
2023-05-19T23:17:58.128Z,1.40
2023-05-19T23:20:25.256Z,1.80
2023-05-19T23:22:51.926Z,1.67
2023-05-19T23:25:19.006Z,1.80
2023-05-19T23:27:46.473Z,1.10
2023-05-19T23:30:13.620Z,1.50
2023-05-19T23:32:41.026Z,1.90
2023-05-19T23:35:16.762Z,1.47
2023-05-19T23:37:43.920Z,1.60
2023-05-19T23:40:11.468Z,1.40
2023-05-19T23:42:38.570Z,1.50
2023-05-19T23:45:06.165Z,1.40
2023-05-19T23:47:33.287Z,1.70
2023-05-19T23:50:00.385Z,1.80
2023-05-19T23:52:27.509Z,1.83
2023-05-19T23:54:54.620Z,1.63
2023-05-19T23:57:21.745Z,1.50
2023-05-19T23:59:48.852Z,1.60
